Flight Track Log - Related Links

Times and Time Zones

All times are in EDT time to prevent confusion due to time zone crossing. See the KAP5 flight status page for this flight to view local times or setup timezone preferences in your user account.

Time Position Orientation Groundspeed Altitude Reporting Facility
EDT Latitude Longitude Course Direction KTS MPH feet Rate Location/Type
Fri 05:57:59 PM 42.3333 -71.0333 216° Southwest 108 124 1,200  Level KA90
Fri 05:58:59 PM 42.3167 -71.0667 236° Southwest 114 131 1,800 632 Climbing KA90
Fri 05:59:53 PM 42.3167 -71.1000 270° West 114 131 2,400 700 Climbing KA90
Fri 06:00:59 PM 42.3333 -71.1500 294° West 110 127 3,200 667 Climbing KA90
Fri 06:01:59 PM 42.3000 -71.1500 180° South 94 108 3,800 600 Climbing KA90
Fri 06:02:59 PM 42.2833 -71.1333 144° Southeast 104 120 4,400 550 Climbing KA90
Fri 06:03:59 PM 42.2500 -71.1333 180° South 113 130 4,900 300 Climbing KA90
Fri 06:04:59 PM 42.2167 -71.1000 143° Southeast 145 167 5,000 53 Climbing KA90
Fri 06:05:53 PM 42.2167 -71.0500 90° East 155 178 5,000  Level KA90
Fri 06:07:05 PM 42.2000 -70.9833 109° East 144 166 5,000  Level KA90
Fri 06:08:05 PM 42.1833 -70.9333 114° Southeast 151 174 5,000  Level KA90
Fri 06:09:05 PM 42.1833 -70.8833 90° East 156 180 5,000  Level KA90
Fri 06:10:05 PM 42.1667 -70.8167 144° Southeast 152 175 5,000  Level KA90
Fri 06:11:05 PM 42.1667 -70.7667 90° East 149 171 5,000  Level KA90
Fri 06:12:05 PM 42.1500 -70.7167 114° Southeast 147 169 5,000  Level KA90
Fri 06:14:00 PM 42.1210 -70.6420 103° East  Level FlightAware Approximate
Fri 06:21:00 PM 42.0696 -70.3373 103° East  Level FlightAware Approximate
Fri 06:22:00 PM 42.0621 -70.2939 103° East  Level FlightAware Approximate
Fri 06:23:00 PM 42.0546 -70.2504 103° East  Level FlightAware Approximate
Fri 06:24:00 PM 42.0471 -70.2070 103° East  Level FlightAware Approximate
Fri 06:25:00 PM 42.0395 -70.1636 103° East  Level FlightAware Approximate
Fri 06:26:00 PM 42.0319 -70.1202 103° East  Level FlightAware Approximate
Fri 06:27:00 PM 42.0243 -70.0768 103° East  Level FlightAware Approximate
Fri 06:28:00 PM 42.0167 -70.0334 103° East  Level FlightAware Approximate
Fri 06:29:00 PM 41.9836 -70.0333 180° South  Level FlightAware Approximate
Fri 06:30:00 PM 41.9505 -70.0333 180° South  Level FlightAware Approximate
Fri 06:31:00 PM 41.9174 -70.0333 180° South  Level FlightAware Approximate
Fri 06:32:00 PM 41.8843 -70.0333 180° South  Level FlightAware Approximate
Fri 06:33:00 PM 41.8511 -70.0333 180° South  Level FlightAware Approximate
Fri 06:34:00 PM 41.8180 -70.0333 180° South  Level FlightAware Approximate
Fri 06:35:00 PM 41.7849 -70.0333 180° South  Level FlightAware Approximate
Fri 06:36:00 PM 41.7518 -70.0333 180° South  Level FlightAware Approximate
Fri 06:37:00 PM 41.7187 -70.0333 180° South  Level FlightAware Approximate
Fri 06:38:00 PM 41.6855 -70.0333 180° South  Level FlightAware Approximate
Fri 06:39:00 PM 41.6524 -70.0333 180° South  Level FlightAware Approximate
Fri 06:40:00 PM 41.6193 -70.0333 180° South  Level FlightAware Approximate
Fri 06:41:00 PM 41.5864 -70.0361 189° South  Level FlightAware Approximate
Fri 06:42:00 PM 41.5536 -70.0426 189° South  Level FlightAware Approximate
Fri 06:43:00 PM 41.5209 -70.0492 189° South  Level FlightAware Approximate
Fri 06:44:00 PM 41.4878 -70.0500 180° South  Level FlightAware Approximate
Fri 06:45:00 PM 41.4547 -70.0500 180° South  Level FlightAware Approximate
Fri 06:46:00 PM 41.4216 -70.0500 180° South  Level FlightAware Approximate
Fri 06:47:00 PM 41.3885 -70.0500 180° South  Level FlightAware Approximate
Fri 06:48:00 PM 41.3553 -70.0500 180° South  Level FlightAware Approximate
Fri 06:49:00 PM 41.3222 -70.0500 180° South  Level FlightAware Approximate
Fri 06:50:00 PM 41.2891 -70.0500 180° South  Level FlightAware Approximate
Fri 06:51:00 PM 41.2560 -70.0500 180° South  Level FlightAware Approximate

Login

Don't have an account? Register now (free) for customized features, flight alerts, and more!